Latest Coastal Weather Observations for Devonport Airport

IDV60701

Issued at 12:45 am EST Wednesday 30 July 2014 (issued every 10 minutes, with the page automatically refreshed every 10 minutes)

About coastal observations | Map of coastal stations | Coastal observations for VIC | Marine services | Other Formats
Station Details ID: 091126 Name: DEVONPORT AIRPORT Lat: -41.17 Lon: 146.43 Height: 8.0 m
Data from the previous 72 hours. | See also: Recent months at Devonport Airport
Date/Time
EST
Temp

°C
Wind Pressure Rain
since 9am
mm
Weather Cloud Vis
km
Sea
Height
m
Swell
Dir
 
Speed
knots
Gust
knots
hPa Trend Height
m
Period
s
Dir
30/12:30am 11.8 WNW 27 34 998.5 - 8.0 - Partly cloudy 10 - - - -
30/12:11am 11.2 W 25 41 998.5 - 8.0 - Partly cloudy 9 - - - -
30/12:08am 11.2 WNW 25 33 998.5 - 8.0 - Partly cloudy 9 - - - -
30/12:00am 11.0 W 26 34 998.4 - 8.0 Showers Cloudy 7 - - - -
 
Date/Time
EST
Temp

°C
Wind Pressure Rain
since 9am
mm
Weather Cloud Vis
km
Sea
Height
m
Swell
Dir
 
Speed
knots
Gust
knots
hPa Trend Height
m
Period
s
Dir
29/11:56pm 11.2 W 27 34 998.4 - 8.0 - Partly cloudy 6 - - - -
29/11:41pm 11.4 W 26 36 998.0 - 8.0 - Partly cloudy 7 - - - -
29/11:30pm 11.8 WNW 26 33 997.8 - 8.0 - Partly cloudy 9 - - - -
29/11:00pm 11.4 WNW 28 39 997.5 - 7.8 - Partly cloudy 9 - - - -
29/10:30pm 11.8 WNW 30 40 997.3 - 7.8 - Partly cloudy 10 - - - -
29/10:24pm 11.7 WNW 27 40 997.2 - 7.8 - Partly cloudy 9 - - - -
29/10:16pm 11.7 WNW 26 33 997.3 - 7.8 - Partly cloudy 9 - - - -
29/10:04pm 11.2 WNW 28 34 997.3 - 7.8 - Partly cloudy 6 - - - -
29/10:00pm 11.4 WNW 28 34 997.4 - 7.6 - Partly cloudy 8 - - - -
29/09:30pm 12.0 WNW 28 35 997.1 - 7.6 - Partly cloudy 10 - - - -
29/09:10pm 11.6 W 27 37 996.7 - 7.6 - Partly cloudy 10 - - - -
29/09:00pm 11.1 W 27 34 996.6 - 7.6 Showers Cloudy 9 - - - -
29/08:59pm 11.0 W 27 37 996.6 - 7.6 - Partly cloudy 9 - - - -
29/08:30pm 11.6 W 28 43 996.3 - 7.4 - Partly cloudy 5 - - - -
29/08:25pm 11.8 W 27 43 996.1 - 7.2 - Partly cloudy 6 - - - -
29/08:23pm 12.2 W 26 33 996.2 - 7.2 - Partly cloudy 6 - - - -
29/08:16pm 12.7 WNW 23 33 995.8 - 7.0 - Partly cloudy 8 - - - -
29/08:00pm 12.6 W 23 31 995.5 - 7.0 - Partly cloudy 10 - - - -
29/07:30pm 13.4 WNW 29 39 995.0 - 7.0 - Partly cloudy 9 - - - -
29/07:23pm 13.5 WNW 26 36 994.9 - 7.0 - Partly cloudy 9 - - - -
29/07:19pm 13.6 WNW 25 31 994.9 - 7.0 - Partly cloudy 9 - - - -
29/07:05pm 13.9 WNW 35 46 993.9 - 7.0 - Partly cloudy 10 - - - -
29/07:00pm 13.6 WNW 33 41 994.0 - 7.0 - Partly cloudy 10 - - - -
29/06:44pm 13.6 WNW 37 47 993.9 - 7.0 - Partly cloudy 10 - - - -
29/06:30pm 13.8 WNW 39 48 993.4 - 7.0 - Partly cloudy 9 - - - -
29/06:01pm 13.9 WNW 34 44 992.5 - 7.0 - Partly cloudy 8 - - - -
29/06:00pm 13.8 WNW 34 43 992.7 - 7.0 Showers Cloudy 8 - - - -
29/05:34pm 13.8 WNW 32 42 992.0 - 7.0 - Partly cloudy 10 - - - -
29/05:30pm 13.7 WNW 30 39 992.3 - 7.0 - Partly cloudy 10 - - - -
29/05:26pm 13.7 NW 28 39 992.4 - 7.0 - Partly cloudy 8 - - - -
29/05:20pm 13.4 NW 28 35 992.6 - 7.0 - Partly cloudy 8 - - - -
29/05:01pm 13.4 NW 28 37 992.6 - 7.0 - Partly cloudy 6 - - - -
29/05:00pm 13.4 NW 28 37 992.6 - 7.0 - Partly cloudy 7 - - - -
29/04:42pm 13.7 WNW 26 36 992.7 - 7.0 - Partly cloudy 9 - - - -
29/04:30pm 13.6 WNW 28 35 992.7 - 7.0 - Partly cloudy 10 - - - -
29/04:14pm 13.4 WNW 32 42 992.7 - 7.0 - Partly cloudy 8 - - - -
29/04:00pm 13.2 NW 36 47 992.9 - 7.0 - Partly cloudy 5 - - - -
29/03:48pm 13.4 NW 33 43 992.8 - 6.8 - Partly cloudy 6 - - - -
29/03:32pm 13.3 NW 30 43 992.7 - 6.8 - Partly cloudy 8 - - - -
29/03:30pm 13.3 NW 29 43 992.7 - 6.8 - Partly cloudy 8 - - - -
29/03:13pm 13.1 NW 29 39 993.4 - 6.8 - Partly cloudy 6 - - - -
29/03:00pm 13.6 NW 27 37 993.7 - 6.8 - Cloudy 10 - - - -
29/02:58pm 13.6 NW 27 37 993.6 - 6.8 - Partly cloudy 10 - - - -
29/02:30pm 13.1 WNW 26 34 994.3 - 6.8 - Partly cloudy 10 - - - -
29/02:00pm 13.1 WNW 27 34 994.6 - 6.8 - Partly cloudy 10 - - - -
29/01:30pm 12.8 WNW 26 35 995.0 - 6.8 - Partly cloudy 10 - - - -
29/01:08pm 12.8 WNW 24 34 995.3 - 6.8 - Partly cloudy 10 - - - -
29/01:00pm 12.6 WNW 25 31 995.5 - 6.8 - Partly cloudy 10 - - - -
29/12:38pm 12.1 W 21 31 995.7 - 6.8 - Partly cloudy 10 - - - -
29/12:30pm 11.8 W 23 31 995.7 - 6.8 - Partly cloudy 10 - - - -
29/12:02pm 11.4 WNW 30 42 995.9 - 4.8 - Partly cloudy 3 - - - -
29/12:00pm 13.0 NW 30 39 995.9 - 4.4 Showers Mostly cloudy 4 - - - -
29/11:57am 13.2 NW 30 39 994.9 - 3.2 - Partly cloudy 6 - - - -
29/11:49am 13.4 NW 29 39 995.0 - 3.0 - Partly cloudy 8 - - - -
29/11:38am 13.4 NW 25 32 995.2 - 3.0 - Partly cloudy 8 - - - -
29/11:34am 13.3 NW 25 32 995.2 - 3.0 - Partly cloudy 7 - - - -
29/11:30am 13.2 NW 25 31 995.4 - 3.0 - Partly cloudy 7 - - - -
29/11:28am 13.1 NW 25 31 995.6 - 3.0 - Partly cloudy 7 - - - -
29/11:15am 13.2 NW 27 34 995.9 - 3.0 - Partly cloudy 6 - - - -
29/11:00am 13.2 NW 27 36 995.9 - 3.0 - Partly cloudy 8 - - - -
29/10:30am 13.9 NW 29 39 996.2 - 3.0 - Partly cloudy 7 - - - -
29/10:13am 13.6 NW 29 39 996.4 - 3.0 - Partly cloudy 7 - - - -
29/10:00am 13.2 WNW 29 43 996.7 - 3.0 - Partly cloudy 4 - - - -
29/09:54am 12.5 WNW 32 43 996.6 - 3.0 - Partly cloudy 3 - - - -
29/09:47am 12.9 WNW 34 44 996.5 - 1.6 - Partly cloudy 6 - - - -
29/09:43am 13.2 NW 38 44 996.2 - 1.6 - Partly cloudy 7 - - - -
29/09:30am 12.7 WNW 27 39 996.6 - 1.6 - Partly cloudy 3 - - - -
29/09:23am 12.8 WNW 27 39 996.5 - 1.4 - Partly cloudy 4 - - - -
29/09:11am 12.3 WNW 21 26 996.9 - 0.2 - Partly cloudy 5 - - - -
29/09:09am 12.5 WNW 22 26 996.9 - 0.2 - Partly cloudy 4 - - - -
29/09:00am 11.8 WNW 32 46 996.6 - 44.4 Showers Cloudy 2 - - - -
29/08:41am 11.0 NW 34 48 996.6 - 39.6 - Partly cloudy 3 - - - -
29/08:30am 12.6 WNW 32 43 996.5 - 37.2 - Partly cloudy 2 - - - -
29/08:22am 11.9 WNW 32 42 996.4 - 36.6 - Partly cloudy 1 - - - -
29/08:21am 11.9 WNW 31 42 996.7 - 36.0 - Partly cloudy 2 - - - -
29/08:17am 11.9 WNW 30 39 996.7 - 32.6 - Partly cloudy 2 - - - -
29/08:00am 12.7 WNW 28 44 996.5 - 29.8 - Partly cloudy 3 - - - -
29/07:58am 12.8 NW 28 44 996.7 - 29.8 - Partly cloudy 2 - - - -
29/07:51am 12.6 NNW 31 47 996.8 - 28.2 - Partly cloudy 2 - - - -
29/07:34am 12.6 NW 32 43 996.5 - 25.4 - Partly cloudy 3 - - - -
29/07:30am 12.7 NW 31 40 996.6 - 25.0 - Partly cloudy 3 - - - -
29/07:00am 12.7 NNW 26 36 996.9 - 22.8 - Partly cloudy 5 - - - -
29/06:34am 12.6 NNW 29 39 997.7 - 21.6 - Partly cloudy 4 - - - -
29/06:30am 12.6 NNW 30 39 997.9 - 21.4 - Partly cloudy 4 - - - -
29/06:19am 12.7 NNW 28 38 997.5 - 21.0 - Partly cloudy 4 - - - -
29/06:00am 12.5 NW 23 32 998.2 - 19.6 Showers Cloudy 3 - - - -
29/05:56am 12.5 NW 25 35 998.4 - 19.6 - Partly cloudy 3 - - - -
29/05:47am 12.7 NW 28 36 998.3 - 18.6 - Partly cloudy 6 - - - -
29/05:44am 12.7 NW 26 36 998.4 - 18.4 - Partly cloudy 6 - - - -
29/05:36am 12.4 NW 25 35 998.5 - 18.4 - Partly cloudy 5 - - - -
29/05:30am 12.4 NNW 28 35 998.3 - 18.2 - Partly cloudy 5 - - - -
29/05:20am 12.4 NNW 30 38 998.5 - 18.0 - Partly cloudy 6 - - - -
29/05:05am 12.9 NNW 32 42 998.5 - 17.8 - Partly cloudy 9 - - - -
29/05:00am 12.9 NNW 27 38 998.7 - 17.8 - Partly cloudy 9 - - - -
29/04:49am 12.3 NW 25 39 999.0 - 17.8 - Partly cloudy 4 - - - -
29/04:45am 12.2 NW 24 34 999.4 - 17.6 - Partly cloudy 3 - - - -
29/04:32am 12.4 NNW 29 40 999.7 - 16.0 - Partly cloudy 3 - - - -
29/04:30am 12.4 NNW 29 40 999.6 - 15.6 - Partly cloudy 3 - - - -
29/04:20am 12.4 NNW 25 38 999.6 - 14.2 - Partly cloudy 6 - - - -
29/04:09am 12.2 NNW 27 35 999.8 - 14.0 - Partly cloudy 6 - - - -
29/04:03am 12.6 NNW 27 35 999.7 - 13.8 - Partly cloudy 8 - - - -
29/04:00am 12.6 NNW 28 36 999.8 - 13.8 - Partly cloudy 9 - - - -
29/03:54am 12.6 NNW 25 36 1000.0 - 13.8 - Partly cloudy 7 - - - -
29/03:45am 11.9 NNW 23 33 1000.2 - 13.6 - Partly cloudy 4 - - - -
29/03:36am 12.0 NNW 27 34 1000.5 - 13.0 - Partly cloudy 6 - - - -
29/03:30am 12.5 NNW 26 34 1000.6 - 13.0 - Partly cloudy 10 - - - -
29/03:00am 12.6 NNW 26 33 1001.3 - 13.0 Showers Cloudy 10 - - - -
29/02:50am 12.2 NNW 29 39 1001.5 - 13.0 - Partly cloudy 6 - - - -
29/02:44am 12.6 NNW 25 35 1001.6 - 12.6 - Partly cloudy 10 - - - -
29/02:30am 12.7 NNW 23 29 1002.1 - 12.6 - Partly cloudy 10 - - - -
29/02:00am 12.6 NW 24 32 1002.7 - 12.6 - Partly cloudy 10 - - - -
29/01:30am 12.6 NW 24 33 1002.9 - 12.6 - Partly cloudy 10 - - - -
29/01:01am 12.1 NW 20 30 1003.4 - 12.6 - Partly cloudy 9 - - - -
29/01:00am 12.1 NW 20 29 1003.4 - 12.4 - Partly cloudy 9 - - - -
29/12:59am 12.1 NW 19 29 1003.6 - 12.4 - Partly cloudy 10 - - - -
29/12:41am 11.5 WNW 19 23 1004.0 - 12.4 - Partly cloudy 10 - - - -
29/12:30am 11.0 NW 22 30 1004.2 - 12.4 - Partly cloudy 6 - - - -
29/12:24am 11.1 NW 25 32 1004.2 - 12.4 - Partly cloudy 6 - - - -
29/12:21am 11.2 NW 24 32 1004.2 - 12.2 - Partly cloudy 8 - - - -
29/12:16am 11.5 NW 22 32 1004.1 - 12.2 - Partly cloudy 9 - - - -
29/12:07am 11.7 NW 20 27 1004.0 - 12.2 - Partly cloudy 6 - - - -
29/12:00am 12.1 NW 20 25 1004.5 - 11.6 Rain Cloudy 10 - - - -
 
Date/Time
EST
Temp

°C
Wind Pressure Rain
since 9am
mm
Weather Cloud Vis
km
Sea
Height
m
Swell
Dir
 
Speed
knots
Gust
knots
hPa Trend Height
m
Period
s
Dir
28/11:55pm 12.3 NW 19 23 1004.3 - 11.6 - Partly cloudy 10 - - - -
28/11:40pm 11.4 WNW 8 11 1004.8 - 11.4 - Partly cloudy 10 - - - -
28/11:30pm 10.9 W 6 10 1004.8 - 11.2 - Partly cloudy 10 - - - -
28/11:22pm 10.9 SW 6 10 1005.1 - 11.2 - Partly cloudy 9 - - - -
28/11:02pm 10.9 WSW 5 7 1005.0 - 10.8 - Partly cloudy 6 - - - -
28/11:00pm 10.9 WSW 6 7 1005.3 - 10.2 - Partly cloudy 10 - - - -
28/10:44pm 11.0 W 4 6 1005.3 - 9.6 - Partly cloudy 10 - - - -
28/10:30pm 11.4 W 9 12 1005.6 - 9.4 - Partly cloudy 4 - - - -
28/10:20pm 12.0 NW 16 22 1005.5 - 8.2 - Partly cloudy 6 - - - -
28/10:15pm 11.9 NW 15 22 1005.5 - 7.4 - Partly cloudy 7 - - - -
28/10:00pm 11.2 WNW 11 17 1005.9 - 7.2 - Partly cloudy 6 - - - -
28/09:59pm 11.6 NW 11 17 1005.8 - 7.2 - Partly cloudy 6 - - - -
28/09:30pm 11.3 NNW 9 17 1006.2 - 6.8 - Partly cloudy 10 - - - -
28/09:20pm 10.9 NW 8 9 1006.2 - 6.8 - Partly cloudy 10 - - - -
28/09:00pm 11.0 NW 10 13 1006.5 - 6.6 Showers Cloudy 8 - - - -
28/08:30pm 11.2 WNW 12 15 1006.5 - 6.4 - Partly cloudy 10 - - - -
28/08:00pm 11.3 WNW 15 18 1006.6 - 6.4 - Partly cloudy 10 - - - -
28/07:30pm 11.6 WNW 20 25 1006.9 - 6.4 - Partly cloudy 10 - - - -
28/07:00pm 11.6 WNW 21 28 1006.7 - 6.4 - Partly cloudy 8 - - - -
28/06:50pm 11.6 WNW 19 32 1006.7 - 6.2 - Partly cloudy 8 - - - -
28/06:30pm 11.6 W 21 29 1006.5 - 5.2 - Partly cloudy 10 - - - -
28/06:17pm 11.8 W 27 38 1006.2 - 5.2 - Partly cloudy 8 - - - -
28/06:15pm 12.5 NW 31 41 1005.6 - 5.2 - Partly cloudy 9 - - - -
28/06:12pm 12.6 NNW 18 29 1005.4 - 5.0 - Partly cloudy 10 - - - -
28/06:00pm 12.8 NW 18 25 1006.3 - 5.0 Rain Mostly cloudy 9 - - - -
28/05:50pm 12.9 NNW 22 29 1006.4 - 5.0 - Partly cloudy 9 - - - -
28/05:30pm 13.0 NNW 20 25 1006.0 - 5.0 - Partly cloudy 10 - - - -
28/05:10pm 13.0 NNW 17 22 1006.3 - 5.0 - Partly cloudy 10 - - - -
28/05:00pm 12.9 NNW 18 24 1006.4 - 5.0 - Partly cloudy 10 - - - -
28/04:30pm 13.0 NW 16 21 1006.6 - 5.0 - Partly cloudy 10 - - - -
28/04:00pm 13.3 NNW 18 22 1006.5 - 5.0 - - 10 - - - -
28/03:30pm 13.3 NW 19 23 1006.4 - 4.8 - - 10 - - - -
28/03:00pm 13.2 NW 20 27 1006.7 - 4.8 - - 10 - - - -
28/02:30pm 13.4 NW 18 25 1006.8 - 4.8 - Partly cloudy 10 - - - -
28/02:00pm 13.2 NW 22 27 1007.3 - 4.8 - Partly cloudy 10 - - - -
28/01:30pm 13.4 NW 23 27 1007.2 - 4.8 - Partly cloudy 10 - - - -
28/01:06pm 12.2 NW 21 31 1007.5 - 4.8 - Partly cloudy 10 - - - -
28/01:01pm 12.4 NW 20 25 1007.6 - 4.8 - Partly cloudy 10 - - - -
28/01:00pm 12.4 NW 20 25 1007.7 - 4.8 - Partly cloudy 10 - - - -
28/12:32pm 10.6 NW 23 39 1007.9 - 1.8 - Partly cloudy 4 - - - -
28/12:30pm 12.4 NW 22 28 1008.3 - 1.2 - Partly cloudy 5 - - - -
28/12:23pm 12.9 NW 24 30 1008.3 - 0.6 - Partly cloudy 6 - - - -
28/12:14pm 13.4 NW 25 30 1008.2 - 0.4 - Partly cloudy 10 - - - -
28/12:02pm 13.5 NNW 20 31 1007.9 - 0.4 - Partly cloudy 10 - - - -
28/12:00pm 13.5 NNW 18 25 1008.2 - 0.4 Showers Cloudy 10 - - - -
28/11:30am 13.1 NW 15 19 1009.2 - 0.0 - Partly cloudy 9 - - - -
28/11:27am 13.3 NW 15 20 1009.2 - 0.0 - Partly cloudy 10 - - - -
28/11:20am 13.7 NW 17 21 1009.2 - 0.0 - Partly cloudy 10 - - - -
28/11:00am 13.5 NW 13 17 1009.7 - 0.0 - Partly cloudy 10 - - - -
28/10:55am 13.5 NW 12 17 1009.7 - 0.0 - Partly cloudy 10 - - - -
28/10:30am 12.8 NW 14 21 1009.9 - 0.0 - Partly cloudy 10 - - - -
28/10:00am 12.7 NW 16 21 1010.0 - 0.0 - Partly cloudy 10 - - - -
28/09:33am 12.1 NW 14 17 1010.0 - 0.0 - Partly cloudy 10 - - - -
28/09:30am 12.1 NW 13 17 1009.9 - 0.0 - Partly cloudy 10 - - - -
28/09:00am 12.0 WNW 16 19 1010.2 - 2.8 - Cloudy 10 - - - -
28/08:30am 12.1 WNW 14 17 1010.1 - 2.8 - Partly cloudy 10 - - - -
28/08:00am 12.0 WNW 12 16 1010.1 - 2.8 - Partly cloudy 10 - - - -
28/07:30am 11.6 WNW 13 17 1010.4 - 2.8 - Partly cloudy 10 - - - -
28/07:28am 11.6 WNW 13 17 1010.4 - 2.8 - Partly cloudy 10 - - - -
28/07:26am 11.7 WNW 14 19 1010.4 - 2.8 - Partly cloudy 10 - - - -
28/07:18am 11.6 WNW 16 19 1010.4 - 2.6 - Partly cloudy 7 - - - -
28/07:13am 11.5 W 18 25 1010.4 - 2.6 - Partly cloudy 6 - - - -
28/07:09am 11.8 W 19 25 1010.4 - 2.2 - Partly cloudy 6 - - - -
28/07:03am 12.8 W 19 21 1010.4 - 1.4 - Partly cloudy 10 - - - -
28/07:00am 13.2 NW 21 26 1010.3 - 1.2 - Partly cloudy 10 - - - -
28/06:30am 13.3 NW 20 28 1010.0 - 1.2 - Partly cloudy 10 - - - -
28/06:00am 13.3 NW 22 28 1009.8 - 1.2 - Mostly cloudy 10 - - - -
28/05:30am 13.2 NW 19 25 1009.9 - 1.2 - Partly cloudy 10 - - - -
28/05:00am 13.1 NW 16 21 1010.5 - 1.2 - Partly cloudy 10 - - - -
28/04:30am 12.8 NW 13 18 1010.6 - 1.2 - Partly cloudy 10 - - - -
28/04:00am 12.9 NW 12 14 1011.1 - 1.2 - Cloudy 10 - - - -
28/03:30am 12.7 NW 10 14 1011.2 - 1.2 - Cloudy 10 - - - -
28/03:00am 12.9 NW 11 14 1011.9 - 1.2 - Cloudy 10 - - - -
28/02:30am 12.9 NW 11 15 1012.2 - 1.2 - Cloudy 10 - - - -
28/02:00am 12.9 NW 10 12 1012.6 - 1.2 - Cloudy 10 - - - -
28/01:30am 12.8 NW 9 13 1012.7 - 1.2 - Partly cloudy 10 - - - -
28/01:00am 12.6 NW 8 11 1013.0 - 1.2 - Partly cloudy 10 - - - -
28/12:30am 12.7 NW 9 12 1013.5 - 1.2 - Cloudy 10 - - - -
28/12:00am 12.8 NW 10 13 1014.0 - 1.2 - Cloudy 10 - - - -
 
Date/Time
EST
Temp

°C
Wind Pressure Rain
since 9am
mm
Weather Cloud Vis
km
Sea
Height
m
Swell
Dir
 
Speed
knots
Gust
knots
hPa Trend Height
m
Period
s
Dir
27/11:30pm 12.9 NW 11 15 1014.3 - 1.2 - Cloudy 10 - - - -
27/11:00pm 12.9 NNW 14 17 1014.4 - 1.2 - Partly cloudy 10 - - - -
27/10:30pm 12.9 NNW 16 21 1014.5 - 1.2 - Partly cloudy 10 - - - -
27/10:00pm 12.8 WNW 14 18 1014.9 - 1.2 - Partly cloudy 10 - - - -
27/09:30pm 12.9 NNW 17 21 1014.9 - 1.2 - Partly cloudy 10 - - - -
27/09:00pm 12.8 NNW 19 23 1015.2 - 1.2 Showers Mostly cloudy 10 - - - -
27/08:59pm 12.8 NNW 19 23 1015.1 - 1.2 - Partly cloudy 10 - - - -
27/08:30pm 12.4 WNW 13 16 1015.6 - 1.0 - Partly cloudy 7 - - - -
27/08:02pm 12.7 NW 15 19 1015.7 - 0.0 - Partly cloudy 10 - - - -
27/08:00pm 12.7 NW 15 19 1015.8 - 0.0 - Partly cloudy 10 - - - -
27/07:30pm 12.8 NNW 17 21 1016.0 - 0.0 - Partly cloudy 10 - - - -
27/07:14pm 12.7 NNW 18 23 1016.1 - 0.0 - Partly cloudy 10 - - - -
27/07:00pm 12.6 NNW 18 23 1016.2 - 0.0 - Partly cloudy 10 - - - -
27/06:37pm 12.7 NNW 17 22 1016.0 - 0.0 - Partly cloudy 10 - - - -
27/06:30pm 12.8 NW 17 22 1016.0 - 0.0 - Partly cloudy 10 - - - -
27/06:00pm 12.7 NW 18 23 1016.2 - 0.0 - Cloudy 10 - - - -
27/05:30pm 12.7 NW 15 21 1016.2 - 0.0 - Partly cloudy 10 - - - -
27/05:00pm 12.7 NW 15 20 1016.3 - 0.0 - Partly cloudy 10 - - - -
27/04:30pm 12.7 NW 14 18 1016.3 - 0.0 - Partly cloudy 10 - - - -
27/04:00pm 12.9 NW 16 20 1016.9 - 0.0 - Partly cloudy 10 - - - -
27/03:30pm 13.4 NW 14 17 1017.0 - 0.0 - Partly cloudy 10 - - - -
27/03:00pm 13.4 NW 15 19 1017.1 - 0.0 - Mostly clear 10 - - - -
27/02:30pm 13.4 NW 12 15 1017.0 - 0.0 - - 10 - - - -
27/02:08pm 13.4 NW 12 15 1017.3 - 0.0 - Partly cloudy 10 - - - -
27/02:00pm 13.2 WNW 12 15 1017.7 - 0.0 - Partly cloudy 10 - - - -
27/01:55pm 13.2 WNW 10 15 1017.6 - 0.0 - Partly cloudy 10 - - - -
27/01:30pm 12.5 NW 8 11 1018.2 - 0.0 - Partly cloudy 10 - - - -
27/01:00pm 12.3 NNW 5 6 1018.7 - 0.0 - Partly cloudy 10 - - - -
27/12:30pm 11.6 N 1 4 1019.4 - 0.0 - Partly cloudy 10 - - - -
27/12:25pm 11.6 CALM 0 4 1019.5 - 0.0 - Partly cloudy 10 - - - -
27/12:15pm 11.2 N 1 3 1019.6 - 0.0 - Partly cloudy 10 - - - -
27/12:00pm 11.1 NNE 3 5 1019.9 - 0.0 - Cloudy 10 - - - -
27/11:30am 11.2 N 4 6 1020.4 - 0.0 - Partly cloudy 10 - - - -
27/11:00am 10.3 N 4 5 1020.9 - 0.0 - Partly cloudy 10 - - - -
27/10:30am 10.2 N 3 4 1021.3 - 0.0 - Partly cloudy 10 - - - -
27/10:00am 10.0 CALM 0 0 1021.4 - 0.0 - - 10 - - - -
27/09:30am 8.6 SSE 3 4 1021.7 - 0.0 - - 10 - - - -
27/09:00am 7.1 S 3 4 1022.0 - 0.2 - - 10 - - - -
27/08:30am 5.8 S 5 6 1021.8 - 0.2 - Partly cloudy 10 - - - -
27/08:00am 4.9 S 6 7 1021.9 - 0.2 - Partly cloudy 10 - - - -
27/07:30am 3.9 S 7 9 1021.7 - 0.2 - Partly cloudy 10 - - - -
27/07:00am 3.9 S 6 8 1021.4 - 0.2 - - 10 - - - -
27/06:30am 4.7 SSW 5 7 1021.3 - 0.2 - - 10 - - - -
27/06:00am 4.7 S 6 7 1021.1 - 0.2 - Partly cloudy 10 - - - -
27/05:30am 4.6 S 8 9 1021.0 - 0.2 - - 10 - - - -
27/05:00am 4.4 S 8 9 1020.9 - 0.2 - - 10 - - - -
27/04:30am 4.5 SW 3 5 1021.0 - 0.2 - - 10 - - - -
27/04:00am 4.9 SSE 7 8 1021.1 - 0.2 - - 10 - - - -
27/03:30am 5.1 S 7 9 1021.4 - 0.2 - - 10 - - - -
27/03:00am 5.1 S 8 9 1021.5 - 0.0 - - 10 - - - -
27/02:30am 4.8 S 7 8 1021.5 - 0.0 - - 10 - - - -
27/02:08am 4.9 S 5 7 1021.5 - 0.0 - - 10 - - - -
27/02:00am 5.2 S 7 8 1021.5 - 0.0 - - 7 - - - -
27/01:52am 5.3 S 6 8 1021.4 - 0.0 - - 6 - - - -
27/01:46am 4.9 S 6 8 1021.6 - 0.0 - - 9 - - - -
27/01:30am 5.3 S 6 8 1021.5 - 0.0 - - 2 - - - -
27/01:22am 5.3 SE 6 7 1021.3 - 0.0 - - 6 - - - -
27/01:08am 5.4 SSE 6 7 1021.5 - 0.0 - - 10 - - - -
27/01:00am 5.8 SSE 7 8 1021.6 - 0.0 - Partly cloudy 9 - - - -
27/12:58am 5.8 SSE 7 8 1021.6 - 0.0 - Partly cloudy 6 - - - -

Other Formats:

Comma delimited format used in spreadsheet applications
http://www.bom.gov.au/fwo/IDV60701/IDV60701.95960.axf

JavaScript Object Notation format (JSON) in row-major order
http://www.bom.gov.au/fwo/IDV60701/IDV60701.95960.json